createdAt,value
2022-12-23T00:01:34.165Z,116.55
2022-12-23T00:04:01.373Z,157.23
2022-12-23T00:06:28.439Z,133.20
2022-12-23T00:08:59.196Z,32.50
2022-12-23T00:11:29.014Z,104.68
2022-12-23T00:17:52.630Z,190.63
2022-12-23T00:24:41.532Z,185.15
2022-12-23T00:27:08.470Z,193.13
2022-12-23T00:29:35.345Z,88.70
2022-12-23T00:36:19.132Z,322.92
2022-12-23T00:49:43.429Z,57.22
2022-12-23T00:56:02.982Z,256.95
2022-12-23T01:05:36.837Z,55.80
2022-12-23T01:11:50.699Z,52.63
2022-12-23T01:18:40.304Z,173.23
2022-12-23T01:25:53.372Z,164.55
2022-12-23T01:32:55.500Z,69.15
2022-12-23T01:39:03.909Z,51.58
2022-12-23T01:45:19.320Z,57.20
2022-12-23T01:51:30.344Z,55.05
2022-12-23T01:54:01.659Z,49.90
2022-12-23T01:56:37.638Z,48.75
2022-12-23T02:14:27.612Z,40.40
2022-12-23T02:21:02.515Z,36.60
2022-12-23T02:27:32.285Z,36.20
2022-12-23T02:30:20.616Z,37.25
2022-12-23T02:33:11.690Z,32.20
2022-12-23T02:36:07.128Z,35.27
2022-12-23T02:38:48.401Z,38.65
2022-12-23T02:41:30.970Z,34.60
2022-12-23T02:44:02.868Z,34.92
2022-12-23T02:46:56.880Z,35.58
2022-12-23T02:53:40.495Z,29.73
2022-12-23T02:56:10.377Z,33.22
2022-12-23T02:59:35.365Z,35.63
2022-12-23T03:25:46.305Z,30.55
2022-12-23T03:40:05.218Z,26.03
2022-12-23T03:46:21.603Z,33.22
2022-12-23T04:00:50.664Z,36.27
2022-12-23T04:13:30.979Z,35.67
2022-12-23T04:15:59.266Z,31.00
2022-12-23T04:18:26.305Z,38.90
2022-12-23T04:21:01.943Z,36.25
2022-12-23T04:27:55.460Z,34.85
2022-12-23T04:34:49.591Z,35.72
2022-12-23T04:40:57.106Z,36.63
2022-12-23T04:48:36.303Z,33.92
2022-12-23T04:51:03.786Z,41.25
2022-12-23T04:53:30.769Z,32.75
2022-12-23T05:04:15.297Z,35.65
2022-12-23T05:06:48.120Z,41.00
2022-12-23T05:13:27.957Z,35.08
2022-12-23T05:35:48.862Z,55.35
2022-12-23T05:39:04.968Z,58.63
2022-12-23T05:53:07.017Z,49.67
2022-12-23T05:59:31.254Z,53.65
2022-12-23T06:05:57.159Z,52.70
2022-12-23T06:31:39.237Z,44.15
2022-12-23T06:34:06.827Z,46.10
2022-12-23T06:36:33.656Z,50.10
2022-12-23T06:39:01.564Z,43.00
2022-12-23T06:41:31.973Z,45.25
2022-12-23T06:43:58.859Z,42.83
2022-12-23T06:46:25.827Z,43.65
2022-12-23T06:48:53.096Z,44.65
2022-12-23T06:51:20.341Z,44.72
2022-12-23T06:53:48.215Z,50.13
2022-12-23T06:56:15.459Z,46.85
2022-12-23T06:58:42.353Z,52.92
2022-12-23T07:01:10.461Z,53.47
2022-12-23T07:03:37.637Z,46.90
2022-12-23T07:06:04.890Z,61.15
2022-12-23T07:08:31.844Z,48.40
2022-12-23T07:11:00.179Z,44.88
2022-12-23T07:13:27.853Z,46.28
2022-12-23T07:15:58.427Z,44.50
2022-12-23T07:18:27.748Z,43.72
2022-12-23T07:20:59.272Z,60.92
2022-12-23T07:23:26.234Z,50.85
2022-12-23T07:25:53.174Z,52.58
2022-12-23T07:28:20.394Z,48.60
2022-12-23T07:30:47.877Z,53.45
2022-12-23T07:33:14.859Z,59.05
2022-12-23T07:35:44.225Z,51.17
2022-12-23T07:38:11.298Z,50.30
2022-12-23T07:40:44.205Z,54.13
2022-12-23T07:43:22.897Z,56.60
2022-12-23T07:45:55.636Z,47.80
2022-12-23T07:48:26.286Z,53.55
2022-12-23T07:50:54.560Z,46.78
2022-12-23T07:53:21.494Z,53.05
2022-12-23T07:55:54.585Z,55.60
2022-12-23T07:58:23.291Z,56.38
2022-12-23T08:00:50.326Z,49.60
2022-12-23T08:03:17.740Z,55.85
2022-12-23T08:05:44.843Z,60.78
2022-12-23T08:08:12.182Z,53.85
2022-12-23T08:10:44.483Z,48.92
2022-12-23T08:13:15.071Z,53.75
2022-12-23T08:15:41.861Z,48.75
2022-12-23T08:18:09.019Z,57.83
2022-12-23T08:20:35.956Z,73.35
2022-12-23T08:23:02.861Z,76.05
2022-12-23T08:25:29.727Z,69.22
2022-12-23T08:27:56.912Z,74.63
2022-12-23T08:30:23.868Z,84.68
2022-12-23T08:32:50.747Z,94.90
2022-12-23T08:35:17.871Z,93.07
2022-12-23T08:37:44.763Z,85.80
2022-12-23T08:40:12.315Z,76.82
2022-12-23T08:42:39.139Z,78.85
2022-12-23T08:45:06.490Z,78.55
2022-12-23T08:47:33.319Z,75.82
2022-12-23T08:50:00.302Z,71.70
2022-12-23T08:56:19.720Z,62.92
2022-12-23T08:58:49.196Z,76.20
2022-12-23T09:01:17.825Z,77.20
2022-12-23T09:03:45.351Z,69.90
2022-12-23T09:06:13.693Z,68.25
2022-12-23T09:08:41.525Z,63.28
2022-12-23T09:11:13.037Z,61.78
2022-12-23T09:13:40.900Z,60.20
2022-12-23T09:16:08.847Z,72.78
2022-12-23T09:18:36.755Z,67.95
2022-12-23T09:21:09.019Z,60.45
2022-12-23T09:23:36.225Z,59.00
2022-12-23T09:26:05.160Z,65.75
2022-12-23T09:28:32.141Z,60.60
2022-12-23T09:31:06.103Z,62.00
2022-12-23T09:33:33.084Z,56.10
2022-12-23T09:36:00.843Z,80.80
2022-12-23T09:38:27.822Z,73.43
2022-12-23T09:41:11.409Z,61.85
2022-12-23T09:44:00.563Z,53.40
2022-12-23T09:46:32.294Z,45.67
2022-12-23T09:51:36.186Z,44.42
2022-12-23T09:54:31.687Z,44.85
2022-12-23T09:57:24.128Z,49.20
2022-12-23T10:00:08.378Z,46.42
2022-12-23T10:02:57.166Z,47.78
2022-12-23T10:05:42.245Z,45.95
2022-12-23T10:08:38.439Z,44.35
2022-12-23T10:11:19.293Z,42.13
2022-12-23T10:13:58.775Z,50.17
2022-12-23T10:16:33.801Z,51.67
2022-12-23T10:19:07.008Z,59.30
2022-12-23T10:21:43.737Z,49.53
2022-12-23T10:24:20.157Z,54.17
2022-12-23T10:26:56.321Z,46.58
2022-12-23T10:29:31.335Z,51.97
2022-12-23T10:32:01.484Z,50.00
2022-12-23T10:34:42.872Z,51.15
2022-12-23T10:37:37.297Z,49.20
2022-12-23T10:40:09.996Z,40.42
2022-12-23T10:42:52.998Z,40.58
2022-12-23T10:45:46.064Z,39.30
2022-12-23T10:48:31.301Z,37.67
2022-12-23T10:51:11.695Z,40.15
2022-12-23T10:53:55.388Z,40.28
2022-12-23T10:56:25.646Z,39.55
2022-12-23T10:58:56.824Z,42.53
2022-12-23T11:01:27.416Z,38.67
2022-12-23T11:04:09.268Z,35.80
2022-12-23T11:07:10.650Z,33.05
2022-12-23T11:09:56.770Z,35.33
2022-12-23T11:12:43.552Z,34.40
2022-12-23T11:15:47.204Z,34.33
2022-12-23T11:18:14.108Z,36.20
2022-12-23T11:20:43.615Z,33.45
2022-12-23T11:23:33.266Z,39.60
2022-12-23T11:26:10.352Z,32.75
2022-12-23T11:28:42.822Z,29.13
2022-12-23T11:31:17.041Z,25.38
2022-12-23T11:33:55.639Z,25.85
2022-12-23T11:36:27.462Z,24.92
2022-12-23T11:42:07.403Z,24.38
2022-12-23T11:44:48.146Z,32.60
2022-12-23T11:47:22.995Z,27.83
2022-12-23T11:49:55.754Z,28.67
2022-12-23T11:52:34.233Z,23.95
2022-12-23T11:55:06.053Z,22.95
2022-12-23T12:00:25.183Z,25.17
2022-12-23T12:02:58.985Z,23.10
2022-12-23T12:05:33.310Z,22.92
2022-12-23T12:08:04.459Z,25.25
2022-12-23T12:10:35.361Z,25.30
2022-12-23T12:13:06.143Z,27.13
2022-12-23T12:15:47.839Z,25.00
2022-12-23T12:20:51.219Z,24.08
2022-12-23T12:23:46.539Z,20.95
2022-12-23T12:26:35.690Z,24.38
2022-12-23T12:29:36.368Z,22.15
2022-12-23T12:32:07.673Z,22.10
2022-12-23T12:34:34.689Z,19.48
2022-12-23T12:37:22.764Z,22.50
2022-12-23T12:39:54.483Z,19.75
2022-12-23T12:42:32.498Z,22.20
2022-12-23T12:45:12.419Z,18.00
2022-12-23T12:48:24.175Z,20.45
2022-12-23T12:51:10.059Z,16.42
2022-12-23T12:53:39.097Z,15.55
2022-12-23T12:56:22.780Z,19.35
2022-12-23T12:58:49.664Z,18.65
2022-12-23T13:01:42.979Z,21.60
2022-12-23T13:04:28.741Z,19.08
2022-12-23T13:07:13.818Z,18.40
2022-12-23T13:09:55.984Z,17.70
2022-12-23T13:12:38.915Z,19.13
2022-12-23T13:15:22.988Z,18.60
2022-12-23T13:17:49.803Z,17.67
2022-12-23T13:20:39.139Z,17.80
2022-12-23T13:23:41.523Z,15.88
2022-12-23T13:26:15.233Z,16.50
2022-12-23T13:28:59.446Z,19.80
2022-12-23T13:31:33.831Z,16.63
2022-12-23T13:34:36.481Z,15.48
2022-12-23T13:37:29.144Z,21.92
2022-12-23T13:40:14.979Z,16.05
2022-12-23T13:42:55.551Z,21.40
2022-12-23T13:45:28.388Z,15.23
2022-12-23T13:48:05.404Z,18.95
2022-12-23T13:50:42.262Z,16.20
2022-12-23T13:53:21.213Z,16.90
2022-12-23T13:55:54.795Z,15.45
2022-12-23T13:58:24.682Z,15.23
2022-12-23T14:01:10.196Z,15.57
2022-12-23T14:03:39.166Z,15.90
2022-12-23T14:06:56.205Z,16.77
2022-12-23T14:09:31.336Z,15.40
2022-12-23T14:12:08.187Z,10.88
2022-12-23T14:14:35.388Z,17.05
2022-12-23T14:17:12.931Z,13.52
2022-12-23T14:19:51.758Z,13.82
2022-12-23T14:22:27.037Z,18.30
2022-12-23T14:25:26.963Z,58.33
2022-12-23T14:28:14.976Z,17.77
2022-12-23T14:30:46.758Z,19.92
2022-12-23T14:36:25.639Z,17.02
2022-12-23T14:39:29.013Z,17.27
2022-12-23T14:42:01.652Z,15.15
2022-12-23T14:44:38.151Z,19.13
2022-12-23T14:47:25.102Z,17.25
2022-12-23T14:49:52.302Z,14.48
2022-12-23T14:52:44.653Z,14.68
2022-12-23T14:55:32.654Z,23.05
2022-12-23T14:58:20.354Z,24.15
2022-12-23T15:00:56.458Z,19.90
2022-12-23T15:03:23.710Z,22.13
2022-12-23T15:05:51.329Z,35.58
2022-12-23T15:08:33.115Z,37.00
2022-12-23T15:11:00.371Z,41.80
2022-12-23T15:13:29.340Z,59.47
2022-12-23T15:16:01.300Z,51.35
2022-12-23T15:18:29.099Z,40.35
2022-12-23T15:21:09.525Z,38.33
2022-12-23T15:23:36.451Z,32.83
2022-12-23T15:26:03.670Z,28.65
2022-12-23T15:28:39.551Z,32.15
2022-12-23T15:31:15.276Z,96.80
2022-12-23T15:34:04.080Z,78.50
2022-12-23T15:36:36.892Z,85.93
2022-12-23T15:41:45.711Z,48.40
2022-12-23T15:44:24.550Z,30.25
2022-12-23T15:46:52.445Z,26.55
2022-12-23T15:49:22.451Z,22.55
2022-12-23T15:52:16.554Z,23.33
2022-12-23T15:54:52.198Z,22.95
2022-12-23T15:57:21.479Z,25.92
2022-12-23T15:59:48.955Z,25.58
2022-12-23T16:02:59.599Z,27.73
2022-12-23T16:05:31.493Z,24.52
2022-12-23T16:08:29.742Z,34.25
2022-12-23T16:11:12.104Z,29.77
2022-12-23T16:13:44.927Z,33.22
2022-12-23T16:16:39.842Z,65.30
2022-12-23T16:21:53.724Z,42.15
2022-12-23T16:24:20.968Z,45.75
2022-12-23T16:26:47.953Z,40.47
2022-12-23T16:29:15.301Z,25.20
2022-12-23T16:31:51.071Z,29.35
2022-12-23T16:34:21.407Z,30.95
2022-12-23T16:36:48.330Z,30.50
2022-12-23T16:39:21.786Z,30.40
2022-12-23T16:41:50.127Z,18.38
2022-12-23T16:44:17.082Z,25.60
2022-12-23T16:46:46.519Z,23.13
2022-12-23T16:49:16.854Z,18.60
2022-12-23T16:51:44.461Z,15.55
2022-12-23T16:54:19.340Z,16.60
2022-12-23T16:56:50.203Z,19.23
2022-12-23T16:59:17.029Z,21.90
2022-12-23T17:01:46.544Z,25.00
2022-12-23T17:04:13.462Z,24.52
2022-12-23T17:06:40.809Z,25.50
2022-12-23T17:09:10.629Z,25.00
2022-12-23T17:11:44.701Z,17.15
2022-12-23T17:14:17.640Z,20.75
2022-12-23T17:16:45.507Z,18.25
2022-12-23T17:19:12.792Z,19.55
2022-12-23T17:21:41.971Z,16.38
2022-12-23T17:24:17.689Z,17.23
2022-12-23T17:26:44.449Z,15.45
2022-12-23T17:29:13.024Z,13.57
2022-12-23T17:31:41.350Z,16.70
2022-12-23T17:34:17.289Z,15.45
2022-12-23T17:36:49.594Z,30.95
2022-12-23T17:39:17.547Z,28.17
2022-12-23T17:41:44.359Z,26.27
2022-12-23T17:44:14.651Z,141.15
2022-12-23T17:46:41.841Z,105.88
2022-12-23T17:49:08.884Z,31.05
2022-12-23T17:51:35.895Z,49.78
2022-12-23T17:54:04.603Z,174.40
2022-12-23T17:56:31.411Z,135.80
2022-12-23T17:58:58.609Z,177.32
2022-12-23T18:01:31.255Z,181.80
2022-12-23T18:03:59.953Z,168.80
2022-12-23T18:06:28.575Z,141.40
2022-12-23T18:08:57.428Z,154.00
2022-12-23T18:11:34.446Z,106.80
2022-12-23T18:14:02.021Z,118.18
2022-12-23T18:16:28.977Z,107.40
2022-12-23T18:18:56.274Z,93.97
2022-12-23T18:21:25.660Z,79.07
2022-12-23T18:23:54.903Z,102.22
2022-12-23T18:26:21.666Z,95.93
2022-12-23T18:28:48.570Z,85.05
2022-12-23T18:31:19.106Z,88.88
2022-12-23T18:33:46.769Z,99.68
2022-12-23T18:36:31.552Z,104.88
2022-12-23T18:38:58.775Z,100.38
2022-12-23T18:41:27.193Z,64.65
2022-12-23T18:43:54.446Z,34.08
2022-12-23T18:46:21.653Z,54.75
2022-12-23T18:48:49.147Z,63.65
2022-12-23T18:51:17.515Z,61.00
2022-12-23T18:53:45.283Z,63.53
2022-12-23T18:56:17.061Z,72.93
2022-12-23T19:01:12.705Z,45.28
2022-12-23T19:03:39.933Z,41.25
2022-12-23T19:06:08.433Z,39.65
2022-12-23T19:08:37.195Z,40.95
2022-12-23T19:11:17.877Z,41.42
2022-12-23T19:13:45.698Z,36.85
2022-12-23T19:16:15.776Z,41.30
2022-12-23T19:18:43.167Z,42.83
2022-12-23T19:21:10.152Z,38.63
2022-12-23T19:23:39.681Z,48.85
2022-12-23T19:26:06.715Z,43.25
2022-12-23T19:28:36.517Z,37.97
2022-12-23T19:31:10.832Z,27.27
2022-12-23T19:33:39.357Z,22.05
2022-12-23T19:36:15.205Z,21.80
2022-12-23T19:38:42.226Z,19.10
2022-12-23T19:41:09.545Z,17.95
2022-12-23T19:43:39.856Z,14.88
2022-12-23T19:46:08.889Z,32.50
2022-12-23T19:48:36.665Z,44.17
2022-12-23T19:51:06.538Z,254.82
2022-12-23T19:53:34.180Z,321.83
2022-12-23T19:56:12.872Z,210.27
2022-12-23T19:58:41.571Z,205.98
2022-12-23T20:01:17.649Z,206.70
2022-12-23T20:03:46.371Z,259.52
2022-12-23T20:06:22.213Z,205.43
2022-12-23T20:08:52.628Z,179.88
2022-12-23T20:11:26.458Z,134.70
2022-12-23T20:13:54.948Z,126.63
2022-12-23T20:16:22.562Z,152.45
2022-12-23T20:18:49.697Z,150.13
2022-12-23T20:21:16.716Z,153.23
2022-12-23T20:23:43.657Z,125.35
2022-12-23T20:26:12.977Z,128.75
2022-12-23T20:28:40.379Z,150.90
2022-12-23T20:31:29.958Z,155.57
2022-12-23T20:33:57.902Z,141.25
2022-12-23T20:36:30.264Z,114.22
2022-12-23T20:38:57.719Z,115.05
2022-12-23T20:41:26.906Z,127.68
2022-12-23T20:44:23.841Z,127.65
2022-12-23T20:46:41.579Z,119.60
2022-12-23T20:49:08.640Z,111.88
2022-12-23T20:51:35.539Z,76.05
2022-12-23T20:54:02.703Z,86.32
2022-12-23T20:56:30.552Z,87.75
2022-12-23T20:58:59.287Z,84.13
2022-12-23T21:01:32.284Z,79.40
2022-12-23T21:04:02.400Z,80.43
2022-12-23T21:06:30.966Z,76.07
2022-12-23T21:08:59.965Z,81.95
2022-12-23T21:11:35.849Z,88.07
2022-12-23T21:14:06.811Z,85.50
2022-12-23T21:16:36.873Z,83.15
2022-12-23T21:19:05.441Z,85.70
2022-12-23T21:21:32.403Z,72.70
2022-12-23T21:24:04.277Z,71.28
2022-12-23T21:26:33.310Z,72.05
2022-12-23T21:29:01.400Z,63.10
2022-12-23T21:31:30.571Z,55.95
2022-12-23T21:33:58.620Z,50.50
2022-12-23T21:36:28.034Z,51.97
2022-12-23T21:38:55.296Z,50.85
2022-12-23T21:41:24.750Z,36.58
2022-12-23T21:43:52.242Z,41.80
2022-12-23T21:46:22.028Z,39.33
2022-12-23T21:48:49.913Z,40.05
2022-12-23T21:51:40.618Z,42.38
2022-12-23T21:54:09.403Z,40.85
2022-12-23T21:56:36.586Z,43.13
2022-12-23T21:59:06.310Z,32.17
2022-12-23T22:01:33.787Z,38.70
2022-12-23T22:04:00.870Z,39.72
2022-12-23T22:06:30.355Z,38.00
2022-12-23T22:08:57.810Z,43.85
2022-12-23T22:11:30.855Z,31.25
2022-12-23T22:13:59.372Z,32.67
2022-12-23T22:16:28.254Z,36.30
2022-12-23T22:18:57.416Z,33.80
2022-12-23T22:21:26.605Z,42.67
2022-12-23T22:23:54.349Z,31.40
2022-12-23T22:26:25.802Z,36.15
2022-12-23T22:31:32.084Z,37.70
2022-12-23T22:33:59.458Z,39.97
2022-12-23T22:36:26.530Z,55.33
2022-12-23T22:38:55.923Z,56.78
2022-12-23T22:41:24.613Z,78.72
2022-12-23T22:43:51.596Z,58.88
2022-12-23T22:46:19.018Z,61.03
2022-12-23T22:48:46.454Z,68.25
2022-12-23T22:51:18.850Z,65.72
2022-12-23T22:53:46.543Z,67.88
2022-12-23T22:56:15.598Z,71.68
2022-12-23T22:58:42.767Z,49.88
2022-12-23T23:01:22.481Z,62.03
2022-12-23T23:03:56.869Z,46.90
2022-12-23T23:06:32.922Z,50.15
2022-12-23T23:09:00.501Z,67.18
2022-12-23T23:11:28.389Z,64.40
2022-12-23T23:13:55.919Z,55.95
2022-12-23T23:16:24.104Z,54.13
2022-12-23T23:18:51.969Z,47.90
2022-12-23T23:21:19.286Z,47.35
2022-12-23T23:23:46.290Z,41.53
2022-12-23T23:26:13.514Z,44.35
2022-12-23T23:28:41.355Z,50.10
2022-12-23T23:33:57.915Z,51.83
2022-12-23T23:36:25.190Z,50.80
2022-12-23T23:38:52.237Z,45.35
2022-12-23T23:41:23.381Z,46.15
2022-12-23T23:43:51.139Z,47.30
2022-12-23T23:46:18.117Z,56.65
2022-12-23T23:48:45.171Z,51.00
2022-12-23T23:51:12.838Z,37.13
2022-12-23T23:53:40.435Z,40.83
2022-12-23T23:56:08.390Z,36.88
2022-12-23T23:58:37.117Z,37.50
